PWSweather.com
Personal Weather Stations
Station Observations

AwhituWaiuku, CA 268400

Lat: -37.058, Lon: -174.6346

Elevation: 250

Station Type: Personal

http://www.weather-display.com/windy/gb/grahamsbeach.htm

Latest ConditionsUpdated 10:30:03 PM GMT-12:48 Tuesday, Feb 21, 2017
Currently Today's Max Today's Min Today's Average
Temperature 65.4°F18.6°C 74.4°F23.6°C 59.8°F15.4°C 67.2°F19.6°C
Dew Point 59.1°F15.1°C 64.6°F18.1°C 57.5°F14.2°C 60.5°F15.8°C
Winds 3.5 mph SSW5.6 kmh SSW 13.8 mph SW22.2 kmh SW - 6.9 mph 11.1 kmh
Wind Gusts 4.6 mph7.4 kmh 20.7 mph33.3 kmh - -
Humidity 80% 93% 65% 80%
Pressure 30.06 in1017.9 mb 30.13 in1020.3 mb 30.02 in1016.6 mb -
Hour Temp Dew Point Humidity Winds Wind Gusts Pressure Precip Precip Rate Daily Precip Total
10:30 PM 65.4°F18.6°C 59.1°F15.1°C 80% 3.5 mph SSW5.6 kmh SSW 4.6 mph7.4 kmh 30.06 in1017.9 mb - 0.00 in0.0 mm 0.00 in0.0 mm
10:00 PM 65.6°F18.7°C 59.3°F15.2°C 80% 4.6 mph SSW7.4 kmh SSW 5.8 mph9.3 kmh 30.06 in1017.9 mb - 0.00 in0.0 mm 0.00 in0.0 mm
09:30 PM 65.9°F18.8°C 59.2°F15.1°C 79% 5.8 mph SSW9.3 kmh SSW 8.1 mph13.0 kmh 30.06 in1017.9 mb - 0.00 in0.0 mm 0.00 in0.0 mm
09:00 PM 66.1°F18.9°C 59.4°F15.2°C 79% 9.2 mph SW14.8 kmh SW 11.5 mph18.5 kmh 30.05 in1017.6 mb - 0.00 in0.0 mm 0.00 in0.0 mm
08:30 PM 66.2°F19.0°C 59.1°F15.1°C 78% 10.4 mph SSW16.7 kmh SSW 15.0 mph24.1 kmh 30.05 in1017.6 mb - 0.00 in0.0 mm 0.00 in0.0 mm
08:00 PM 66.2°F19.0°C 59.1°F15.1°C 78% 5.8 mph SSW9.3 kmh SSW 11.5 mph18.5 kmh 30.04 in1017.3 mb - 0.00 in0.0 mm 0.00 in0.0 mm
07:30 PM 66.4°F19.1°C 59.0°F15.0°C 77% 9.2 mph SSW14.8 kmh SSW 13.8 mph22.2 kmh 30.03 in1016.9 mb - 0.00 in0.0 mm 0.00 in0.0 mm
07:00 PM 67.2°F19.6°C 59.7°F15.4°C 77% 10.4 mph SSW16.7 kmh SSW 15.0 mph24.1 kmh 30.03 in1016.9 mb - 0.00 in0.0 mm 0.00 in0.0 mm
06:30 PM 68.2°F20.1°C 58.8°F14.9°C 72% 9.2 mph SW14.8 kmh SW 12.7 mph20.4 kmh 30.03 in1016.9 mb - 0.00 in0.0 mm 0.00 in0.0 mm
06:00 PM 69.3°F20.7°C 59.9°F15.5°C 72% 9.2 mph SSW14.8 kmh SSW 18.4 mph29.6 kmh 30.03 in1016.9 mb - 0.00 in0.0 mm 0.00 in0.0 mm
05:30 PM 70.2°F21.2°C 60.7°F15.9°C 72% 11.5 mph SW18.5 kmh SW 20.7 mph33.3 kmh 30.03 in1016.9 mb - 0.00 in0.0 mm 0.00 in0.0 mm
05:00 PM 70.9°F21.6°C 61.4°F16.3°C 72% 13.8 mph SW22.2 kmh SW 20.7 mph33.3 kmh 30.02 in1016.6 mb - 0.00 in0.0 mm 0.00 in0.0 mm
04:30 PM 72.9°F22.7°C 62.1°F16.7°C 69% 12.7 mph SW20.4 kmh SW 16.1 mph25.9 kmh 30.03 in1016.9 mb - 0.00 in0.0 mm 0.00 in0.0 mm
04:00 PM 73.8°F23.2°C 62.6°F17.0°C 68% 13.8 mph SW22.2 kmh SW 19.6 mph31.5 kmh 30.03 in1016.9 mb - 0.00 in0.0 mm 0.00 in0.0 mm
03:30 PM 74.2°F23.4°C 62.1°F16.7°C 66% 13.8 mph SW22.2 kmh SW 19.6 mph31.5 kmh 30.03 in1016.9 mb - 0.00 in0.0 mm 0.00 in0.0 mm
03:00 PM 74.4°F23.6°C 61.9°F16.6°C 65% 10.4 mph WSW16.7 kmh WSW 13.8 mph22.2 kmh 30.03 in1016.9 mb - 0.00 in0.0 mm 0.00 in0.0 mm
02:30 PM 74.3°F23.5°C 61.7°F16.5°C 65% 13.8 mph WSW22.2 kmh WSW 16.1 mph25.9 kmh 30.04 in1017.3 mb - 0.00 in0.0 mm 0.00 in0.0 mm
02:00 PM 73.9°F23.3°C 61.4°F16.3°C 65% 11.5 mph WSW18.5 kmh WSW 17.3 mph27.8 kmh 30.04 in1017.3 mb - 0.00 in0.0 mm 0.00 in0.0 mm
01:30 PM 73.8°F23.2°C 62.2°F16.8°C 67% 11.5 mph WSW18.5 kmh WSW 19.6 mph31.5 kmh 30.05 in1017.6 mb - 0.00 in0.0 mm 0.00 in0.0 mm
01:00 PM 73.7°F23.2°C 62.5°F16.9°C 68% 13.8 mph SW22.2 kmh SW 15.0 mph24.1 kmh 30.06 in1017.9 mb - 0.00 in0.0 mm 0.00 in0.0 mm
12:30 PM 72.6°F22.6°C 63.4°F17.4°C 73% 9.2 mph SW14.8 kmh SW 16.1 mph25.9 kmh 30.07 in1018.3 mb - 0.00 in0.0 mm 0.00 in0.0 mm
12:00 PM 73.3°F22.9°C 64.1°F17.8°C 73% 11.5 mph WSW18.5 kmh WSW 19.6 mph31.5 kmh 30.07 in1018.3 mb - 0.00 in0.0 mm 0.00 in0.0 mm
11:30 AM 72.4°F22.4°C 64.4°F18.0°C 76% 6.9 mph SW11.1 kmh SW 10.4 mph16.7 kmh 30.08 in1018.6 mb - 0.00 in0.0 mm 0.00 in0.0 mm
11:00 AM 72.5°F22.5°C 64.5°F18.1°C 76% 12.7 mph WSW20.4 kmh WSW 15.0 mph24.1 kmh 30.08 in1018.6 mb - 0.00 in0.0 mm 0.00 in0.0 mm
10:30 AM 71.8°F22.1°C 64.6°F18.1°C 78% 9.2 mph W14.8 kmh W 12.7 mph20.4 kmh 30.09 in1019.0 mb - 0.00 in0.0 mm 0.00 in0.0 mm
10:00 AM 71.4°F21.9°C 63.8°F17.7°C 77% 10.4 mph W16.7 kmh W 12.7 mph20.4 kmh 30.09 in1019.0 mb - 0.00 in0.0 mm 0.00 in0.0 mm
09:30 AM 69.6°F20.9°C 63.2°F17.3°C 80% 11.5 mph W18.5 kmh W 13.8 mph22.2 kmh 30.09 in1019.0 mb - 0.00 in0.0 mm 0.00 in0.0 mm
09:00 AM 68.3°F20.2°C 62.6°F17.0°C 82% 11.5 mph W18.5 kmh W 12.7 mph20.4 kmh 30.09 in1019.0 mb - 0.00 in0.0 mm 0.00 in0.0 mm
08:30 AM 67.7°F19.8°C 62.3°F16.8°C 83% 9.2 mph W14.8 kmh W 11.5 mph18.5 kmh 30.09 in1019.0 mb - 0.00 in0.0 mm 0.00 in0.0 mm
08:00 AM 66.5°F19.2°C 62.2°F16.8°C 86% 6.9 mph W11.1 kmh W 8.1 mph13.0 kmh 30.09 in1019.0 mb - 0.00 in0.0 mm 0.00 in0.0 mm
07:30 AM 64.1°F17.8°C 60.1°F15.6°C 87% 5.8 mph NW9.3 kmh NW 8.1 mph13.0 kmh 30.09 in1019.0 mb - 0.00 in0.0 mm 0.00 in0.0 mm
07:00 AM 61.8°F16.6°C 58.5°F14.7°C 89% 2.3 mph W3.7 kmh W 3.5 mph5.6 kmh 30.09 in1019.0 mb - 0.00 in0.0 mm 0.00 in0.0 mm
06:30 AM 61.5°F16.4°C 58.5°F14.7°C 90% 3.5 mph W5.6 kmh W 5.8 mph9.3 kmh 30.08 in1018.6 mb - 0.00 in0.0 mm 0.00 in0.0 mm
06:00 AM 61.2°F16.2°C 58.9°F14.9°C 92% 3.5 mph W5.6 kmh W 5.8 mph9.3 kmh 30.08 in1018.6 mb - 0.00 in0.0 mm 0.00 in0.0 mm
05:30 AM 60.6°F15.9°C 58.5°F14.7°C 93% Calm Calm -- 30.08 in1018.6 mb - 0.00 in0.0 mm 0.00 in0.0 mm
05:00 AM 59.8°F15.4°C 57.8°F14.3°C 93% Calm Calm -- 30.07 in1018.3 mb - 0.00 in0.0 mm 0.00 in0.0 mm
04:30 AM 59.8°F15.4°C 57.5°F14.2°C 92% Calm Calm -- 30.07 in1018.3 mb - 0.00 in0.0 mm 0.00 in0.0 mm
04:00 AM 60.7°F15.9°C 58.1°F14.5°C 91% Calm Calm -- 30.07 in1018.3 mb - 0.00 in0.0 mm 0.00 in0.0 mm
03:30 AM 61.2°F16.2°C 58.2°F14.6°C 90% Calm Calm -- 30.07 in1018.3 mb - 0.00 in0.0 mm 0.00 in0.0 mm
03:00 AM 61.6°F16.4°C 58.3°F14.6°C 89% Calm Calm -- 30.07 in1018.3 mb - 0.00 in0.0 mm 0.00 in0.0 mm
02:30 AM 62.6°F17.0°C 58.7°F14.8°C 87% Calm Calm -- 30.08 in1018.6 mb - 0.00 in0.0 mm 0.00 in0.0 mm
02:00 AM 62.9°F17.2°C 59.3°F15.2°C 88% Calm Calm -- 30.09 in1019.0 mb - 0.00 in0.0 mm 0.00 in0.0 mm
01:30 AM 62.5°F16.9°C 58.9°F14.9°C 88% Calm Calm -- 30.10 in1019.3 mb - 0.00 in0.0 mm 0.00 in0.0 mm
01:00 AM 62.3°F16.8°C 59.0°F15.0°C 89% Calm Calm -- 30.11 in1019.6 mb - 0.00 in0.0 mm 0.00 in0.0 mm
12:30 AM 62.7°F17.1°C 59.1°F15.1°C 88% Calm Calm -- 30.12 in1020.0 mb - 0.00 in0.0 mm 0.00 in0.0 mm
12:00 AM 62.7°F17.1°C 58.8°F14.9°C 87% Calm Calm -- 30.13 in1020.3 mb - 0.00 in0.0 mm 0.00 in0.0 mm